Time;durP1;ratioP1;P1;durP2;ratioP2;P2;SDS_P1;SDS_P2;PMS_P1;PMS_P2;Temp;Humidity;BMP_temperature;BMP_pressure;BME280_temperature;BME280_humidity;BME280_pressure;Samples;Min_cycle;Max_cycle;Signal;HPM_P1;HPM_P2
2022/04/25 00:00:20;;;;;;;;;;;16.00;56.20;;;;;;2045593;28;19926;-66
2022/04/25 00:01:19;;;;;;;;;;;16.00;56.30;;;;;;2045561;28;19912;-66
2022/04/25 00:02:17;;;;;;;;;;;16.00;56.30;;;;;;2045552;28;19903;-66
2022/04/25 00:03:15;;;;;;;;;;;16.00;56.30;;;;;;2045497;28;20381;-66
2022/04/25 00:04:14;;;;;;;;;;;16.00;56.30;;;;;;2045584;28;19911;-66
2022/04/25 00:05:12;;;;;;;;;;;16.00;56.30;;;;;;2045355;28;19977;-66
2022/04/25 00:06:11;;;;;;;;;;;16.00;56.30;;;;;;2045415;28;19965;-66
2022/04/25 00:07:09;;;;;;;;;;;15.90;56.30;;;;;;2045399;28;20003;-66
2022/04/25 00:08:08;;;;;;;;;;;16.00;56.30;;;;;;2045648;28;19904;-66
2022/04/25 00:09:06;;;;;;;;;;;16.00;56.30;;;;;;2045501;28;19924;-66
2022/04/25 00:10:05;;;;;;;;;;;16.00;56.40;;;;;;2045541;28;19904;-67
2022/04/25 00:11:04;;;;;;;;;;;16.00;56.30;;;;;;2045780;28;19927;-66
2022/04/25 00:12:03;;;;;;;;;;;15.90;56.30;;;;;;2045617;28;20405;-66
2022/04/25 00:13:01;;;;;;;;;;;16.00;56.40;;;;;;2044759;28;19907;-66
2022/04/25 00:13:59;;;;;;;;;;;15.90;56.30;;;;;;2045020;28;19953;-66
2022/04/25 00:14:58;;;;;;;;;;;15.90;56.30;;;;;;2044766;28;20496;-66
2022/04/25 00:15:56;;;;;;;;;;;15.90;56.20;;;;;;2045152;28;19910;-66
2022/04/25 00:16:56;;;;;;;;;;;15.90;56.20;;;;;;2045323;28;20373;-66
2022/04/25 00:17:54;;;;;;;;;;;15.90;56.20;;;;;;2045603;28;19911;-65
2022/04/25 00:18:53;;;;;;;;;;;16.00;56.30;;;;;;2045364;28;19911;-65
2022/04/25 00:19:51;;;;;;;;;;;15.90;56.20;;;;;;2045366;28;19922;-65
2022/04/25 00:20:50;;;;;;;;;;;15.90;56.20;;;;;;2045602;28;19910;-65
2022/04/25 00:21:49;;;;;;;;;;;15.90;56.20;;;;;;2045332;28;19989;-66
2022/04/25 00:22:47;;;;;;;;;;;16.00;56.30;;;;;;2045353;27;20371;-65
2022/04/25 00:23:46;;;;;;;;;;;15.90;56.20;;;;;;2045355;28;19903;-66
2022/04/25 00:24:47;;;;;;;;;;;15.90;56.20;;;;;;2045361;28;19911;-66
2022/04/25 00:25:46;;;;;;;;;;;15.90;56.20;;;;;;2045371;28;19904;-66
2022/04/25 00:26:45;;;;;;;;;;;15.90;56.20;;;;;;2044871;28;19910;-66
2022/04/25 00:27:43;;;;;;;;;;;15.90;56.20;;;;;;2045181;28;19903;-65
2022/04/25 00:28:42;;;;;;;;;;;15.90;56.20;;;;;;2045574;28;19950;-66
2022/04/25 00:29:40;;;;;;;;;;;15.90;56.20;;;;;;2045487;28;19904;-66
2022/04/25 00:30:39;;;;;;;;;;;15.90;56.20;;;;;;2045243;28;19908;-66
2022/04/25 00:31:37;;;;;;;;;;;15.90;56.20;;;;;;2045360;28;20044;-66
2022/04/25 00:32:36;;;;;;;;;;;15.90;56.20;;;;;;2045411;28;19910;-66
2022/04/25 00:33:34;;;;;;;;;;;15.90;56.20;;;;;;2045540;28;20028;-66
2022/04/25 00:34:33;;;;;;;;;;;15.90;56.20;;;;;;2045326;28;19992;-65
2022/04/25 00:35:31;;;;;;;;;;;15.90;56.20;;;;;;2045517;28;19911;-66
2022/04/25 00:36:30;;;;;;;;;;;15.90;56.20;;;;;;2045274;28;20377;-66
2022/04/25 00:37:28;;;;;;;;;;;15.90;56.80;;;;;;2045371;28;19908;-66
2022/04/25 00:38:27;;;;;;;;;;;15.90;56.10;;;;;;2045305;28;19903;-66
2022/04/25 00:39:25;;;;;;;;;;;15.90;56.10;;;;;;2045545;28;19904;-66
2022/04/25 00:40:24;;;;;;;;;;;15.90;56.10;;;;;;2045249;28;19911;-67
2022/04/25 00:41:23;;;;;;;;;;;15.90;56.20;;;;;;2045226;28;19912;-66
2022/04/25 00:42:21;;;;;;;;;;;15.90;56.10;;;;;;2045169;28;20012;-66
2022/04/25 00:43:20;;;;;;;;;;;15.90;56.20;;;;;;2045272;28;19903;-66
2022/04/25 00:44:18;;;;;;;;;;;15.90;56.10;;;;;;2045355;28;19908;-66
2022/04/25 00:45:17;;;;;;;;;;;15.90;56.20;;;;;;2045223;28;20247;-66
2022/04/25 00:46:19;;;;;;;;;;;15.90;56.10;;;;;;2045194;28;19914;-66
2022/04/25 00:47:18;;;;;;;;;;;15.90;56.20;;;;;;2045306;28;19903;-67
2022/04/25 00:48:16;;;;;;;;;;;15.90;56.20;;;;;;2045175;28;20288;-66
2022/04/25 00:49:15;;;;;;;;;;;15.90;56.20;;;;;;2045142;28;20403;-66
2022/04/25 00:50:13;;;;;;;;;;;15.90;56.10;;;;;;2045158;28;19903;-66
2022/04/25 00:51:12;;;;;;;;;;;15.90;56.10;;;;;;2045144;28;19903;-66
2022/04/25 00:52:10;;;;;;;;;;;15.90;56.70;;;;;;2045147;28;19939;-66
2022/04/25 00:53:09;;;;;;;;;;;15.90;56.10;;;;;;2045147;28;19959;-66
2022/04/25 00:54:08;;;;;;;;;;;15.90;56.10;;;;;;2045153;28;19950;-66
2022/04/25 00:55:07;;;;;;;;;;;15.90;56.10;;;;;;2045088;28;20224;-66
2022/04/25 00:56:07;;;;;;;;;;;15.90;56.10;;;;;;2045202;28;19949;-67
2022/04/25 00:57:06;;;;;;;;;;;15.90;56.10;;;;;;2044377;28;19904;-66
2022/04/25 00:58:05;;;;;;;;;;;15.90;56.10;;;;;;2044512;28;19993;-66
2022/04/25 00:59:04;;;;;;;;;;;15.90;56.10;;;;;;2045022;28;19910;-66
2022/04/25 01:00:05;;;;;;;;;;;15.90;56.10;;;;;;2045185;28;19904;-66
2022/04/25 01:01:03;;;;;;;;;;;15.90;56.10;;;;;;2045014;28;19994;-66
2022/04/25 01:02:02;;;;;;;;;;;15.90;56.10;;;;;;2045056;28;19911;-67
2022/04/25 01:03:01;;;;;;;;;;;15.90;56.10;;;;;;2045175;28;19998;-66
2022/04/25 01:03:59;;;;;;;;;;;15.90;56.00;;;;;;2045291;28;19907;-66
2022/04/25 01:04:58;;;;;;;;;;;15.90;56.00;;;;;;2045006;28;19962;-65
2022/04/25 01:05:57;;;;;;;;;;;15.90;56.00;;;;;;2045063;28;20266;-66
2022/04/25 01:06:56;;;;;;;;;;;15.90;56.10;;;;;;2045168;28;19948;-65
2022/04/25 01:07:54;;;;;;;;;;;15.90;56.00;;;;;;2045082;28;19903;-66
2022/04/25 01:08:52;;;;;;;;;;;15.90;56.10;;;;;;2045026;28;19904;-66
2022/04/25 01:09:51;;;;;;;;;;;15.90;56.10;;;;;;2045011;28;20282;-65
2022/04/25 01:10:49;;;;;;;;;;;15.90;56.10;;;;;;2045047;28;19918;-65
2022/04/25 01:11:48;;;;;;;;;;;15.90;56.10;;;;;;2045194;28;19904;-65
2022/04/25 01:12:46;;;;;;;;;;;15.90;56.10;;;;;;2045059;28;19903;-65
2022/04/25 01:13:45;;;;;;;;;;;15.90;56.10;;;;;;2045100;28;19941;-65
2022/04/25 01:14:43;;;;;;;;;;;15.90;56.10;;;;;;2045031;28;19904;-65
2022/04/25 01:15:42;;;;;;;;;;;15.90;56.10;;;;;;2045104;28;20313;-65
2022/04/25 01:16:40;;;;;;;;;;;15.90;56.10;;;;;;2044276;28;19904;-65
2022/04/25 01:17:39;;;;;;;;;;;15.90;56.10;;;;;;2044469;28;19907;-66
2022/04/25 01:18:37;;;;;;;;;;;15.90;56.00;;;;;;2045037;28;19903;-66
2022/04/25 01:19:36;;;;;;;;;;;15.90;56.00;;;;;;2044296;28;19995;-65
2022/04/25 01:20:35;;;;;;;;;;;15.90;56.70;;;;;;2044376;28;19903;-66
2022/04/25 01:21:37;;;;;;;;;;;15.90;56.00;;;;;;2044935;28;19904;-65
2022/04/25 01:28:14;;;;;;;;;;;15.80;56.00;;;;;;2045182;28;20312;-65
2022/04/25 01:29:13;;;;;;;;;;;15.90;56.10;;;;;;2045097;28;20010;-65
2022/04/25 01:30:12;;;;;;;;;;;15.80;56.10;;;;;;2044410;28;19903;-66
2022/04/25 01:31:10;;;;;;;;;;;15.90;56.10;;;;;;2044586;28;19939;-66
2022/04/25 01:32:09;;;;;;;;;;;15.80;56.00;;;;;;2045192;28;20331;-66
2022/04/25 01:33:07;;;;;;;;;;;15.80;56.10;;;;;;2044917;28;19939;-66
2022/04/25 01:34:07;;;;;;;;;;;15.80;56.00;;;;;;2045190;28;20055;-65
2022/04/25 01:35:06;;;;;;;;;;;15.90;56.10;;;;;;2044995;28;19903;-65
2022/04/25 01:36:04;;;;;;;;;;;15.90;56.10;;;;;;2045240;28;19939;-65
2022/04/25 01:37:07;;;;;;;;;;;15.80;55.90;;;;;;2044949;28;19949;-65
2022/04/25 01:38:06;;;;;;;;;;;15.90;56.10;;;;;;2044395;28;19904;-65
2022/04/25 01:39:05;;;;;;;;;;;15.80;56.00;;;;;;2046044;28;19904;-66
2022/04/25 01:40:03;;;;;;;;;;;15.80;56.00;;;;;;2046773;28;19911;-66
2022/04/25 01:41:02;;;;;;;;;;;15.90;56.00;;;;;;2046625;28;19910;-66
2022/04/25 01:42:01;;;;;;;;;;;15.80;56.00;;;;;;2046634;27;19904;-66
2022/04/25 01:42:59;;;;;;;;;;;15.80;56.00;;;;;;2045944;28;19911;-66
2022/04/25 01:43:57;;;;;;;;;;;15.80;56.00;;;;;;2045973;28;20274;-65
2022/04/25 01:44:56;;;;;;;;;;;15.80;55.90;;;;;;2046531;28;20002;-66
2022/04/25 01:45:54;;;;;;;;;;;15.80;55.90;;;;;;2046539;28;19904;-65
2022/04/25 01:46:53;;;;;;;;;;;15.80;55.90;;;;;;2046471;28;20369;-67
2022/04/25 01:47:51;;;;;;;;;;;15.80;56.00;;;;;;2046739;28;19943;-65
2022/04/25 01:48:50;;;;;;;;;;;15.80;56.00;;;;;;2046571;28;19904;-67
2022/04/25 01:49:48;;;;;;;;;;;15.80;56.00;;;;;;2046518;28;19904;-66
2022/04/25 01:50:49;;;;;;;;;;;15.80;56.00;;;;;;2046673;28;19991;-65
2022/04/25 01:51:48;;;;;;;;;;;15.80;56.00;;;;;;2046672;28;19903;-66
2022/04/25 01:52:46;;;;;;;;;;;15.80;55.90;;;;;;2046610;28;19903;-66
2022/04/25 01:53:45;;;;;;;;;;;15.80;56.00;;;;;;2046644;28;20064;-66
2022/04/25 01:54:43;;;;;;;;;;;15.80;56.00;;;;;;2046536;28;19928;-66
2022/04/25 01:55:42;;;;;;;;;;;15.80;56.00;;;;;;2046566;28;19927;-66
2022/04/25 01:56:40;;;;;;;;;;;15.80;56.00;;;;;;2045838;28;19950;-66
2022/04/25 01:57:39;;;;;;;;;;;15.80;55.90;;;;;;2045943;28;19954;-66
2022/04/25 01:58:37;;;;;;;;;;;15.80;56.00;;;;;;2046592;28;19926;-66
2022/04/25 01:59:36;;;;;;;;;;;15.80;56.00;;;;;;2046590;28;19911;-66
2022/04/25 02:00:35;;;;;;;;;;;15.80;56.00;;;;;;2046576;28;19910;-66
2022/04/25 02:01:33;;;;;;;;;;;15.80;56.00;;;;;;2046548;28;20347;-66
2022/04/25 02:02:32;;;;;;;;;;;15.80;55.90;;;;;;2046562;28;19911;-66
2022/04/25 02:03:33;;;;;;;;;;;15.80;56.00;;;;;;2046636;28;19910;-66
2022/04/25 02:04:31;;;;;;;;;;;15.80;56.00;;;;;;2046450;28;19957;-66
2022/04/25 02:05:30;;;;;;;;;;;15.80;55.90;;;;;;2046628;28;19912;-66
2022/04/25 02:06:29;;;;;;;;;;;15.80;56.00;;;;;;2046460;28;20030;-66
2022/04/25 02:07:28;;;;;;;;;;;15.80;55.90;;;;;;2046935;28;19908;-66
2022/04/25 02:08:26;;;;;;;;;;;15.80;55.90;;;;;;2051725;28;19904;-65
2022/04/25 02:09:25;;;;;;;;;;;15.80;55.90;;;;;;2052087;28;19943;-65
2022/04/25 02:10:23;;;;;;;;;;;15.80;55.90;;;;;;2051193;28;19910;-66
2022/04/25 02:11:22;;;;;;;;;;;15.80;55.90;;;;;;2049560;28;19921;-66
2022/04/25 02:12:20;;;;;;;;;;;15.80;55.90;;;;;;2046459;28;20344;-67
2022/04/25 02:13:21;;;;;;;;;;;15.80;55.90;;;;;;2046315;28;19954;-66
2022/04/25 02:14:19;;;;;;;;;;;15.80;55.90;;;;;;2049844;28;19908;-66
2022/04/25 02:15:18;;;;;;;;;;;15.80;55.90;;;;;;2046736;27;20251;-66
2022/04/25 02:16:16;;;;;;;;;;;15.80;55.90;;;;;;2046633;28;19904;-66
2022/04/25 02:17:15;;;;;;;;;;;15.80;55.90;;;;;;2046625;28;19955;-66
2022/04/25 02:18:14;;;;;;;;;;;15.80;56.10;;;;;;2046537;28;19942;-66
2022/04/25 02:19:12;;;;;;;;;;;15.80;55.80;;;;;;2046728;28;19904;-66
2022/04/25 02:20:12;;;;;;;;;;;15.80;55.80;;;;;;2046695;28;20286;-66
2022/04/25 02:21:11;;;;;;;;;;;15.80;55.80;;;;;;2046484;28;20269;-66
2022/04/25 02:22:10;;;;;;;;;;;15.80;55.90;;;;;;2046544;28;19915;-66
2022/04/25 02:23:10;;;;;;;;;;;15.80;55.90;;;;;;2048427;28;19919;-65
2022/04/25 02:24:09;;;;;;;;;;;15.80;55.80;;;;;;2051644;28;19977;-66
2022/04/25 02:25:09;;;;;;;;;;;15.80;55.80;;;;;;2047553;28;19970;-66
2022/04/25 02:26:10;;;;;;;;;;;15.80;55.90;;;;;;2050517;28;19908;-65
2022/04/25 02:27:08;;;;;;;;;;;15.80;55.90;;;;;;2055980;27;19892;-65
2022/04/25 02:28:07;;;;;;;;;;;15.70;55.80;;;;;;2055945;28;19904;-65
2022/04/25 02:29:05;;;;;;;;;;;15.70;55.80;;;;;;2055907;28;19892;-65
2022/04/25 02:30:04;;;;;;;;;;;15.80;55.90;;;;;;2051463;28;19903;-66
2022/04/25 02:31:04;;;;;;;;;;;15.80;55.80;;;;;;2046329;28;19953;-66
2022/04/25 02:32:03;;;;;;;;;;;15.80;55.80;;;;;;2046270;28;19926;-66
2022/04/25 02:33:01;;;;;;;;;;;15.80;55.80;;;;;;2046390;28;20347;-66
2022/04/25 02:33:59;;;;;;;;;;;15.70;55.70;;;;;;2046238;28;20260;-66
2022/04/25 02:34:59;;;;;;;;;;;15.70;55.70;;;;;;2046240;28;19910;-66
2022/04/25 02:35:58;;;;;;;;;;;15.80;55.90;;;;;;2046283;28;19911;-66
2022/04/25 02:36:57;;;;;;;;;;;15.80;55.80;;;;;;2046254;28;19911;-66
2022/04/25 02:37:55;;;;;;;;;;;15.80;55.90;;;;;;2046351;28;19908;-67
2022/04/25 02:38:54;;;;;;;;;;;15.80;55.80;;;;;;2045531;28;20405;-66
2022/04/25 02:39:53;;;;;;;;;;;15.70;55.70;;;;;;2045692;28;19911;-66
2022/04/25 02:41:04;;;;;;;;;;;15.70;55.70;;;;;;2046169;28;20309;-66
2022/04/25 02:42:02;;;;;;;;;;;15.70;55.70;;;;;;2046253;28;19904;-65
2022/04/25 02:43:01;;;;;;;;;;;15.70;55.70;;;;;;2045414;28;20007;-67
2022/04/25 02:43:59;;;;;;;;;;;15.70;55.70;;;;;;2045649;28;19907;-67
2022/04/25 02:44:58;;;;;;;;;;;15.70;55.70;;;;;;2046008;28;20419;-65
2022/04/25 02:45:56;;;;;;;;;;;15.70;55.70;;;;;;2046089;28;19903;-66
2022/04/25 02:46:54;;;;;;;;;;;15.70;55.60;;;;;;2046143;28;19935;-66
2022/04/25 02:47:53;;;;;;;;;;;15.70;55.70;;;;;;2046182;28;20317;-66
2022/04/25 02:48:51;;;;;;;;;;;15.70;55.70;;;;;;2046089;28;19910;-67
2022/04/25 02:49:50;;;;;;;;;;;15.70;55.60;;;;;;2045466;28;19903;-67
2022/04/25 02:50:49;;;;;;;;;;;15.70;55.70;;;;;;2045923;28;19908;-66
2022/04/25 02:51:47;;;;;;;;;;;15.70;55.70;;;;;;2046232;28;19968;-66
2022/04/25 02:52:46;;;;;;;;;;;15.70;55.70;;;;;;2046183;28;20267;-66
2022/04/25 02:53:44;;;;;;;;;;;15.70;55.60;;;;;;2046172;28;19987;-66
2022/04/25 02:54:43;;;;;;;;;;;15.70;55.60;;;;;;2046113;28;20358;-66
2022/04/25 02:55:42;;;;;;;;;;;15.70;55.70;;;;;;2046085;28;19910;-65
2022/04/25 02:56:41;;;;;;;;;;;15.70;55.60;;;;;;2046047;28;19904;-66
2022/04/25 02:57:39;;;;;;;;;;;15.70;55.50;;;;;;2046030;28;20349;-65
2022/04/25 02:58:41;;;;;;;;;;;15.70;55.60;;;;;;2046193;28;19910;-66
2022/04/25 02:59:39;;;;;;;;;;;15.70;55.60;;;;;;2046102;27;19908;-65
2022/04/25 03:00:38;;;;;;;;;;;15.70;56.30;;;;;;2046002;28;19903;-66
2022/04/25 03:01:36;;;;;;;;;;;15.70;55.60;;;;;;2046228;28;19910;-66
2022/04/25 03:02:34;;;;;;;;;;;15.70;55.60;;;;;;2046004;28;19914;-66
2022/04/25 03:03:34;;;;;;;;;;;15.70;55.60;;;;;;2046068;28;19999;-66
2022/04/25 03:04:32;;;;;;;;;;;15.70;55.60;;;;;;2045968;28;19965;-65
2022/04/25 03:05:31;;;;;;;;;;;15.70;55.60;;;;;;2045781;28;19915;-66
2022/04/25 03:06:29;;;;;;;;;;;15.70;55.70;;;;;;2045878;28;20014;-65
2022/04/25 03:07:29;;;;;;;;;;;15.70;55.70;;;;;;2045986;28;19939;-66
2022/04/25 03:08:28;;;;;;;;;;;15.70;55.60;;;;;;2045998;28;19910;-65
2022/04/25 03:09:27;;;;;;;;;;;15.70;55.60;;;;;;2046096;28;19911;-66
2022/04/25 03:10:26;;;;;;;;;;;15.70;55.60;;;;;;2045255;28;19991;-66
2022/04/25 03:11:25;;;;;;;;;;;15.70;55.60;;;;;;2045287;28;19903;-65
2022/04/25 03:12:23;;;;;;;;;;;15.70;55.60;;;;;;2045978;28;19926;-65
2022/04/25 03:13:24;;;;;;;;;;;15.70;55.60;;;;;;2045882;28;19910;-66
2022/04/25 03:14:23;;;;;;;;;;;15.70;55.60;;;;;;2045910;28;19903;-66
2022/04/25 03:15:22;;;;;;;;;;;15.70;55.50;;;;;;2045855;28;19908;-66
2022/04/25 03:16:20;;;;;;;;;;;15.70;55.50;;;;;;2045801;28;20256;-67
2022/04/25 03:17:19;;;;;;;;;;;15.70;55.50;;;;;;2045847;28;19929;-66
2022/04/25 03:18:22;;;;;;;;;;;15.70;55.50;;;;;;2045928;28;19910;-66
2022/04/25 03:19:20;;;;;;;;;;;15.70;55.50;;;;;;2045851;28;19903;-67
2022/04/25 03:20:18;;;;;;;;;;;15.60;55.50;;;;;;2046080;28;19908;-66
2022/04/25 03:21:17;;;;;;;;;;;15.70;55.60;;;;;;2045838;28;19919;-67
2022/04/25 03:22:15;;;;;;;;;;;15.70;55.50;;;;;;2045895;28;19947;-67
2022/04/25 03:23:14;;;;;;;;;;;15.70;55.50;;;;;;2046009;27;19935;-66
2022/04/25 03:24:13;;;;;;;;;;;15.60;55.40;;;;;;2045960;28;20450;-66
2022/04/25 03:25:11;;;;;;;;;;;15.70;55.50;;;;;;2045816;27;20015;-66
2022/04/25 03:26:10;;;;;;;;;;;15.70;55.50;;;;;;2045701;28;19951;-66
2022/04/25 03:27:08;;;;;;;;;;;15.60;55.40;;;;;;2045117;28;19995;-66
2022/04/25 03:28:07;;;;;;;;;;;15.70;55.40;;;;;;2045519;28;20303;-66
2022/04/25 03:29:06;;;;;;;;;;;15.60;55.40;;;;;;2045869;28;19903;-66
2022/04/25 03:30:05;;;;;;;;;;;15.70;55.40;;;;;;2045847;28;19911;-66
2022/04/25 03:31:06;;;;;;;;;;;15.60;55.30;;;;;;2045751;28;19910;-67
2022/04/25 03:32:05;;;;;;;;;;;15.70;55.50;;;;;;2045894;28;19903;-67
2022/04/25 03:33:03;;;;;;;;;;;15.60;55.40;;;;;;2045867;27;19947;-66
2022/04/25 03:34:02;;;;;;;;;;;15.60;55.50;;;;;;2045866;28;19904;-67
2022/04/25 03:35:03;;;;;;;;;;;15.70;55.50;;;;;;2045706;28;19991;-67
2022/04/25 03:36:02;;;;;;;;;;;15.60;55.40;;;;;;2045709;28;19904;-66
2022/04/25 03:37:00;;;;;;;;;;;15.70;55.50;;;;;;2045638;28;19992;-66
2022/04/25 03:37:59;;;;;;;;;;;15.60;55.40;;;;;;2045829;28;19908;-67
2022/04/25 03:38:57;;;;;;;;;;;15.70;55.40;;;;;;2045702;28;20372;-66
2022/04/25 03:39:57;;;;;;;;;;;15.60;55.40;;;;;;2045729;28;19943;-66
2022/04/25 03:40:56;;;;;;;;;;;15.60;55.40;;;;;;2045788;28;19910;-66
2022/04/25 03:41:54;;;;;;;;;;;15.60;55.30;;;;;;2045712;28;20278;-66
2022/04/25 03:42:55;;;;;;;;;;;15.70;55.40;;;;;;2045627;28;19994;-67
2022/04/25 03:43:54;;;;;;;;;;;15.70;55.50;;;;;;2045754;28;19907;-66
2022/04/25 03:44:53;;;;;;;;;;;15.60;56.00;;;;;;2045830;28;19904;-66
2022/04/25 03:45:52;;;;;;;;;;;15.60;55.40;;;;;;2045614;28;19911;-66
2022/04/25 03:46:50;;;;;;;;;;;15.60;55.40;;;;;;2045517;27;20372;-67
2022/04/25 03:47:48;;;;;;;;;;;15.60;55.40;;;;;;2045853;28;19904;-66
2022/04/25 03:48:47;;;;;;;;;;;15.60;55.40;;;;;;2045634;28;19952;-67
2022/04/25 03:49:45;;;;;;;;;;;15.60;55.30;;;;;;2045684;28;19903;-66
2022/04/25 03:50:44;;;;;;;;;;;15.60;55.40;;;;;;2045662;28;19911;-66
2022/04/25 03:51:44;;;;;;;;;;;15.60;55.40;;;;;;2045618;28;19942;-66
2022/04/25 03:52:43;;;;;;;;;;;15.60;55.40;;;;;;2045681;28;20330;-66
2022/04/25 03:53:42;;;;;;;;;;;15.60;55.30;;;;;;2045695;27;19960;-66
2022/04/25 03:57:14;;;;;;;;;;;15.60;55.30;;;;;;2045577;28;19904;-66
2022/04/25 03:58:13;;;;;;;;;;;15.60;55.40;;;;;;2045712;28;19994;-66
2022/04/25 03:59:13;;;;;;;;;;;15.60;55.40;;;;;;2045542;28;20342;-66
2022/04/25 04:00:11;;;;;;;;;;;15.60;55.30;;;;;;2044870;28;20371;-66
2022/04/25 04:01:10;;;;;;;;;;;15.60;55.30;;;;;;2044853;28;20318;-66
2022/04/25 04:02:08;;;;;;;;;;;15.60;55.30;;;;;;2045442;28;20351;-66
2022/04/25 04:03:09;;;;;;;;;;;15.60;55.30;;;;;;2045645;28;19904;-66
2022/04/25 04:04:07;;;;;;;;;;;15.60;55.30;;;;;;2045604;28;20346;-66
2022/04/25 04:05:07;;;;;;;;;;;15.60;55.20;;;;;;2045409;28;19911;-66
2022/04/25 04:06:07;;;;;;;;;;;15.60;55.30;;;;;;2045375;28;19912;-66
2022/04/25 04:07:06;;;;;;;;;;;15.60;55.20;;;;;;2045436;28;19904;-67
2022/04/25 04:08:04;;;;;;;;;;;15.60;55.20;;;;;;2045631;28;20327;-66
2022/04/25 04:09:44;;;;;;;;;;;15.60;55.20;;;;;;2045617;28;19904;-66
2022/04/25 04:10:22;;;;;;;;;;;15.60;55.30;;;;;;2045312;28;19995;-66
2022/04/25 04:11:21;;;;;;;;;;;15.50;55.30;;;;;;2045442;28;20314;-66
2022/04/25 04:12:20;;;;;;;;;;;15.60;55.30;;;;;;2045383;28;20052;-67
2022/04/25 04:13:19;;;;;;;;;;;15.60;55.40;;;;;;2044811;28;19957;-66
2022/04/25 04:14:17;;;;;;;;;;;15.60;55.30;;;;;;2044768;28;19946;-66
2022/04/25 04:15:16;;;;;;;;;;;15.60;55.30;;;;;;2045530;28;20282;-66
2022/04/25 04:16:15;;;;;;;;;;;15.60;55.30;;;;;;2045373;28;19927;-67
2022/04/25 04:17:17;;;;;;;;;;;15.60;55.20;;;;;;2045533;28;20303;-67
2022/04/25 04:18:16;;;;;;;;;;;15.60;55.20;;;;;;2045433;28;19911;-67
2022/04/25 04:19:14;;;;;;;;;;;15.60;55.20;;;;;;2045322;28;19986;-67
2022/04/25 04:20:13;;;;;;;;;;;15.60;55.10;;;;;;2045298;28;20350;-67
2022/04/25 04:21:13;;;;;;;;;;;15.60;55.20;;;;;;2045619;28;19911;-66
2022/04/25 04:22:11;;;;;;;;;;;15.60;55.80;;;;;;2045338;27;19959;-67
2022/04/25 04:23:10;;;;;;;;;;;15.60;55.20;;;;;;2045437;28;19960;-66
2022/04/25 04:24:09;;;;;;;;;;;15.60;55.20;;;;;;2045458;27;19904;-66
2022/04/25 04:25:11;;;;;;;;;;;15.60;55.20;;;;;;2045483;28;19943;-66
2022/04/25 04:26:10;;;;;;;;;;;15.60;55.20;;;;;;2045233;28;19918;-67
2022/04/25 04:27:08;;;;;;;;;;;15.60;55.10;;;;;;2045274;28;19904;-66
2022/04/25 04:28:07;;;;;;;;;;;15.60;55.10;;;;;;2045433;28;19953;-66
2022/04/25 04:29:05;;;;;;;;;;;15.60;55.10;;;;;;2045315;28;19907;-66
2022/04/25 04:30:06;;;;;;;;;;;15.60;55.00;;;;;;2045301;28;19938;-66
2022/04/25 04:31:04;;;;;;;;;;;15.60;55.10;;;;;;2045235;28;19925;-66
2022/04/25 04:32:05;;;;;;;;;;;15.60;55.10;;;;;;2045404;28;19992;-66
2022/04/25 04:33:05;;;;;;;;;;;15.60;55.10;;;;;;2045377;28;19994;-66
2022/04/25 04:34:04;;;;;;;;;;;15.60;55.00;;;;;;2045345;28;19959;-66
2022/04/25 04:35:05;;;;;;;;;;;15.60;55.00;;;;;;2045333;28;20274;-66
2022/04/25 04:36:18;;;;;;;;;;;15.60;55.00;;;;;;2045129;28;19904;-66
2022/04/25 04:37:17;;;;;;;;;;;15.60;55.00;;;;;;2045336;28;20351;-67
2022/04/25 04:38:15;;;;;;;;;;;15.60;55.10;;;;;;2045315;28;19927;-67
2022/04/25 04:39:13;;;;;;;;;;;15.60;55.10;;;;;;2044606;28;19966;-66
2022/04/25 04:40:30;;;;;;;;;;;15.60;55.00;;;;;;2044670;28;20395;-66
2022/04/25 04:41:28;;;;;;;;;;;15.60;55.10;;;;;;2045299;28;19995;-66
2022/04/25 04:42:27;;;;;;;;;;;15.60;55.10;;;;;;2045238;28;20257;-66
2022/04/25 04:43:25;;;;;;;;;;;15.60;55.00;;;;;;2045492;28;19908;-66
2022/04/25 04:44:24;;;;;;;;;;;15.60;55.60;;;;;;2045212;28;19910;-66
2022/04/25 04:45:22;;;;;;;;;;;15.60;55.00;;;;;;2045263;28;20002;-66
2022/04/25 04:46:21;;;;;;;;;;;15.60;55.00;;;;;;2045183;28;19907;-66
2022/04/25 04:47:19;;;;;;;;;;;15.60;55.00;;;;;;2045265;28;20002;-65
2022/04/25 04:48:19;;;;;;;;;;;15.50;54.90;;;;;;2045218;28;19956;-67
2022/04/25 04:49:17;;;;;;;;;;;15.50;55.00;;;;;;2044540;28;20292;-66
2022/04/25 04:50:16;;;;;;;;;;;15.50;55.00;;;;;;2044712;28;19910;-67
2022/04/25 04:51:14;;;;;;;;;;;15.50;54.80;;;;;;2043866;28;20370;-66
2022/04/25 04:52:13;;;;;;;;;;;15.50;54.90;;;;;;2044803;28;19904;-66
2022/04/25 04:53:12;;;;;;;;;;;15.50;55.00;;;;;;2045228;28;19904;-66
2022/04/25 04:54:10;;;;;;;;;;;15.50;54.90;;;;;;2045279;28;19904;-66
2022/04/25 04:55:09;;;;;;;;;;;15.50;54.90;;;;;;2045159;28;19907;-66
2022/04/25 04:56:08;;;;;;;;;;;15.60;55.00;;;;;;2045212;28;19907;-65
2022/04/25 04:57:08;;;;;;;;;;;15.60;54.90;;;;;;2045078;28;20270;-65
2022/04/25 04:58:06;;;;;;;;;;;15.50;54.90;;;;;;2044469;28;19931;-65
2022/04/25 04:59:05;;;;;;;;;;;15.50;54.90;;;;;;2044727;28;19954;-66
2022/04/25 05:00:05;;;;;;;;;;;15.50;54.80;;;;;;2046267;28;19986;-65
2022/04/25 05:01:04;;;;;;;;;;;15.50;54.80;;;;;;2046779;28;19904;-66
2022/04/25 05:02:05;;;;;;;;;;;15.60;54.90;;;;;;2047160;28;19904;-66
2022/04/25 05:03:04;;;;;;;;;;;15.50;54.80;;;;;;2046679;28;19903;-67
2022/04/25 05:04:03;;;;;;;;;;;15.60;54.90;;;;;;2046909;28;19911;-66
2022/04/25 05:05:01;;;;;;;;;;;15.60;54.90;;;;;;2045773;28;19986;-65
2022/04/25 05:06:00;;;;;;;;;;;15.50;54.80;;;;;;2046459;28;19915;-66
2022/04/25 05:06:58;;;;;;;;;;;15.50;54.90;;;;;;2045531;28;19926;-67
2022/04/25 05:07:57;;;;;;;;;;;15.50;54.90;;;;;;2045619;28;19903;-67
2022/04/25 05:08:55;;;;;;;;;;;15.50;54.80;;;;;;2045244;28;19964;-65
2022/04/25 05:09:54;;;;;;;;;;;15.50;54.80;;;;;;2045303;28;19904;-66
2022/04/25 05:10:54;;;;;;;;;;;15.50;54.80;;;;;;2044593;28;20398;-68
2022/04/25 05:11:53;;;;;;;;;;;15.50;54.80;;;;;;2036375;28;19904;-66
2022/04/25 05:12:54;;;;;;;;;;;15.60;54.90;;;;;;2044171;28;20048;-65
2022/04/25 05:13:52;;;;;;;;;;;15.50;54.80;;;;;;2045127;28;19904;-66
2022/04/25 05:14:50;;;;;;;;;;;15.50;54.80;;;;;;2046025;28;19911;-65
2022/04/25 05:15:49;;;;;;;;;;;15.50;54.80;;;;;;2053570;28;19919;-65
2022/04/25 05:16:47;;;;;;;;;;;15.60;54.90;;;;;;2047283;28;19910;-66
2022/04/25 05:17:50;;;;;;;;;;;15.50;54.80;;;;;;2048224;28;19903;-65
2022/04/25 05:18:49;;;;;;;;;;;15.50;54.80;;;;;;2044695;28;19910;-66
2022/04/25 05:19:47;;;;;;;;;;;15.50;54.80;;;;;;2044419;28;20390;-66
2022/04/25 05:20:46;;;;;;;;;;;15.50;54.80;;;;;;2045031;28;19916;-67
2022/04/25 05:21:44;;;;;;;;;;;15.50;54.80;;;;;;2045028;28;19910;-66
2022/04/25 05:22:44;;;;;;;;;;;15.50;54.80;;;;;;2044937;28;20413;-65
2022/04/25 05:23:43;;;;;;;;;;;15.50;54.80;;;;;;2044983;28;19903;-66
2022/04/25 05:24:42;;;;;;;;;;;15.60;54.70;;;;;;2044243;28;20465;-66
2022/04/25 05:25:40;;;;;;;;;;;15.60;55.50;;;;;;2044417;28;19990;-66
2022/04/25 05:26:38;;;;;;;;;;;15.50;54.80;;;;;;2044755;28;19912;-67
2022/04/25 05:27:38;;;;;;;;;;;15.50;54.70;;;;;;2044944;28;19910;-66
2022/04/25 05:28:36;;;;;;;;;;;15.60;54.90;;;;;;2045047;28;19904;-67
2022/04/25 05:29:35;;;;;;;;;;;15.60;54.90;;;;;;2045083;28;19910;-66
2022/04/25 05:30:34;;;;;;;;;;;15.60;54.70;;;;;;2045039;28;20366;-67
2022/04/25 05:31:33;;;;;;;;;;;15.50;54.80;;;;;;2044845;28;19904;-66
2022/04/25 05:32:43;;;;;;;;;;;15.50;54.70;;;;;;2044986;28;20394;-67
2022/04/25 05:33:42;;;;;;;;;;;15.50;54.80;;;;;;2044230;28;20354;-66
2022/04/25 05:34:40;;;;;;;;;;;15.50;54.80;;;;;;2044373;28;19904;-66
2022/04/25 05:35:39;;;;;;;;;;;15.50;54.80;;;;;;2044997;28;20008;-66
2022/04/25 05:36:37;;;;;;;;;;;15.50;54.80;;;;;;2044858;28;19904;-66
2022/04/25 05:37:37;;;;;;;;;;;15.50;54.80;;;;;;2044803;28;20319;-67
2022/04/25 05:38:37;;;;;;;;;;;15.50;54.70;;;;;;2044841;28;19994;-66
2022/04/25 05:39:35;;;;;;;;;;;15.50;54.80;;;;;;2044916;28;19986;-67
2022/04/25 05:40:35;;;;;;;;;;;15.60;54.70;;;;;;2044975;28;19904;-66
2022/04/25 05:41:35;;;;;;;;;;;15.50;54.70;;;;;;2044901;28;20351;-67
2022/04/25 05:42:33;;;;;;;;;;;15.80;55.00;;;;;;2044825;28;19911;-66
2022/04/25 05:43:32;;;;;;;;;;;15.50;54.70;;;;;;2044808;28;20354;-67
2022/04/25 05:44:30;;;;;;;;;;;15.50;54.60;;;;;;2044805;28;19956;-68
2022/04/25 05:45:29;;;;;;;;;;;15.60;54.70;;;;;;2044847;28;19918;-65
2022/04/25 05:46:27;;;;;;;;;;;15.50;54.70;;;;;;2044707;28;19943;-67
2022/04/25 05:47:26;;;;;;;;;;;15.60;54.70;;;;;;2045038;28;19904;-67
2022/04/25 05:52:16;;;;;;;;;;;15.50;54.70;;;;;;2044939;28;20354;-66
2022/04/25 05:53:16;;;;;;;;;;;15.50;54.70;;;;;;2044848;28;19998;-66
2022/04/25 05:54:15;;;;;;;;;;;15.50;54.70;;;;;;2044837;28;19990;-66
2022/04/25 05:55:13;;;;;;;;;;;15.50;54.60;;;;;;2044811;28;19908;-66